Time;durP1;ratioP1;P1;durP2;ratioP2;P2;SDS_P1;SDS_P2;PMS_P1;PMS_P2;Temp;Humidity;BMP_temperature;BMP_pressure;BME280_temperature;BME280_humidity;BME280_pressure;Samples;Min_cycle;Max_cycle;Signal;HPM_P1;HPM_P2
2021/04/07 00:01:58;;;;;;;83.65;39.38;;;;;;;;;;4996478;28;20532;-53
2021/04/07 00:04:24;;;;;;;34.78;17.42;;;;;;;;;;4997243;28;20030;-54
2021/04/07 00:06:52;;;;;;;44.30;20.98;;;;;;;;;;4997092;28;20043;-54
2021/04/07 00:09:19;;;;;;;53.28;25.10;;;;;;;;;;4997066;28;20026;-52
2021/04/07 00:11:45;;;;;;;21.25;10.55;;;;;;;;;;4996823;28;20033;-53
2021/04/07 00:14:11;;;;;;;40.25;19.15;;;;;;;;;;4996853;28;20030;-53
2021/04/07 00:16:37;;;;;;;18.65;8.77;;;;;;;;;;4996781;28;20031;-53
2021/04/07 00:19:06;;;;;;;37.17;16.00;;;;;;;;;;4997006;28;20031;-53
2021/04/07 00:21:32;;;;;;;27.63;11.43;;;;;;;;;;4996466;28;20407;-53
2021/04/07 00:23:58;;;;;;;31.48;14.50;;;;;;;;;;4996809;28;20041;-54
2021/04/07 00:26:24;;;;;;;28.38;13.57;;;;;;;;;;5006011;23;20387;-54
2021/04/07 00:28:50;;;;;;;51.75;23.45;;;;;;;;;;4996680;28;20026;-54
2021/04/07 00:31:16;;;;;;;52.20;25.48;;;;;;;;;;5128156;23;20006;-50
2021/04/07 00:33:42;;;;;;;30.35;14.00;;;;;;;;;;5015216;28;20108;-49
2021/04/07 00:36:11;;;;;;;66.32;32.47;;;;;;;;;;5016242;28;20033;-50
2021/04/07 00:38:37;;;;;;;57.95;27.48;;;;;;;;;;5016106;28;20025;-46
2021/04/07 00:41:03;;;;;;;35.63;17.50;;;;;;;;;;5016126;28;20052;-46
2021/04/07 00:43:29;;;;;;;14.32;7.28;;;;;;;;;;5016087;28;20030;-48
2021/04/07 00:45:55;;;;;;;21.83;8.27;;;;;;;;;;5015969;28;20488;-47
2021/04/07 00:48:21;;;;;;;45.47;22.42;;;;;;;;;;5016114;28;20133;-47
2021/04/07 00:50:47;;;;;;;29.27;13.90;;;;;;;;;;5016227;28;20022;-48
2021/04/07 00:53:14;;;;;;;28.15;12.63;;;;;;;;;;5015974;28;20036;-50
2021/04/07 00:55:44;;;;;;;53.80;22.40;;;;;;;;;;5015830;28;20484;-49
2021/04/07 00:58:11;;;;;;;15.20;7.30;;;;;;;;;;5015794;28;20030;-48
2021/04/07 01:00:37;;;;;;;23.25;10.77;;;;;;;;;;5015902;28;20377;-49
2021/04/07 01:03:03;;;;;;;20.42;10.15;;;;;;;;;;5015490;28;20041;-47
2021/04/07 01:05:29;;;;;;;26.02;9.40;;;;;;;;;;5015623;28;20026;-47
2021/04/07 01:07:56;;;;;;;22.58;9.50;;;;;;;;;;5015467;28;20044;-49
2021/04/07 01:10:22;;;;;;;41.28;15.45;;;;;;;;;;5015506;28;20103;-49
2021/04/07 01:12:48;;;;;;;27.08;11.10;;;;;;;;;;5015334;28;20080;-49
2021/04/07 01:15:15;;;;;;;27.08;10.32;;;;;;;;;;5015261;28;20109;-49
2021/04/07 01:17:46;;;;;;;30.13;12.85;;;;;;;;;;5015607;28;20084;-49
2021/04/07 01:20:16;;;;;;;45.95;18.55;;;;;;;;;;5015238;28;20512;-47
2021/04/07 01:22:42;;;;;;;19.00;9.25;;;;;;;;;;5015365;28;20056;-46
2021/04/07 01:25:09;;;;;;;85.80;36.05;;;;;;;;;;5015354;28;20121;-46
2021/04/07 01:27:38;;;;;;;25.98;10.90;;;;;;;;;;5015182;28;20038;-47
2021/04/07 01:30:06;;;;;;;25.42;12.10;;;;;;;;;;4997616;28;20034;-48
2021/04/07 01:32:32;;;;;;;45.45;21.23;;;;;;;;;;5015003;28;20045;-50
2021/04/07 01:34:58;;;;;;;51.72;23.30;;;;;;;;;;5015171;28;20029;-49
2021/04/07 01:37:24;;;;;;;22.90;9.98;;;;;;;;;;5015089;28;20018;-48
2021/04/07 01:39:50;;;;;;;23.98;12.00;;;;;;;;;;5015110;28;20026;-51
2021/04/07 01:42:17;;;;;;;46.13;22.35;;;;;;;;;;5014957;28;20053;-48
2021/04/07 01:44:43;;;;;;;27.92;13.07;;;;;;;;;;5015315;28;20056;-48
2021/04/07 01:47:09;;;;;;;35.00;15.18;;;;;;;;;;5014750;28;20033;-48
2021/04/07 01:49:35;;;;;;;12.52;7.68;;;;;;;;;;5014895;28;20470;-50
2021/04/07 01:52:02;;;;;;;14.27;8.10;;;;;;;;;;5014994;28;20034;-51
2021/04/07 01:54:28;;;;;;;26.88;11.35;;;;;;;;;;5014947;28;20026;-50
2021/04/07 01:56:58;;;;;;;15.70;7.90;;;;;;;;;;5014924;28;20053;-52
2021/04/07 01:59:25;;;;;;;21.33;9.27;;;;;;;;;;5014747;28;20378;-50
2021/04/07 02:01:52;;;;;;;23.80;9.80;;;;;;;;;;5014580;28;20038;-50
2021/04/07 02:04:18;;;;;;;16.65;8.13;;;;;;;;;;5014960;28;20040;-54
2021/04/07 02:06:45;;;;;;;14.32;7.15;;;;;;;;;;5014413;28;20022;-48
2021/04/07 02:09:11;;;;;;;12.80;7.00;;;;;;;;;;5014685;28;20026;-48
2021/04/07 02:11:41;;;;;;;18.75;8.68;;;;;;;;;;5014613;28;20045;-50
2021/04/07 02:14:07;;;;;;;22.23;10.65;;;;;;;;;;5014432;28;20029;-50
2021/04/07 02:16:35;;;;;;;25.85;12.18;;;;;;;;;;5014616;28;20104;-50
2021/04/07 02:19:02;;;;;;;22.15;9.82;;;;;;;;;;5014595;28;20037;-50
2021/04/07 02:21:28;;;;;;;18.92;9.00;;;;;;;;;;5014446;28;20026;-50
2021/04/07 02:23:54;;;;;;;12.80;6.68;;;;;;;;;;5013912;28;20026;-50
2021/04/07 02:26:20;;;;;;;11.65;6.32;;;;;;;;;;5014733;28;20469;-50
2021/04/07 02:28:46;;;;;;;17.00;8.70;;;;;;;;;;5014249;28;20085;-50
2021/04/07 02:31:12;;;;;;;13.77;7.43;;;;;;;;;;5014415;28;20045;-50
2021/04/07 02:33:39;;;;;;;12.90;7.22;;;;;;;;;;5014034;28;20053;-51
2021/04/07 02:36:05;;;;;;;18.00;8.73;;;;;;;;;;5014053;28;20022;-50
2021/04/07 02:38:31;;;;;;;13.88;8.10;;;;;;;;;;5014229;28;20033;-49
2021/04/07 02:40:57;;;;;;;16.73;9.65;;;;;;;;;;5014140;28;20061;-50
2021/04/07 02:43:23;;;;;;;11.30;7.50;;;;;;;;;;5014030;28;20022;-50
2021/04/07 02:45:52;;;;;;;13.40;7.95;;;;;;;;;;5013926;28;20040;-50
2021/04/07 02:48:18;;;;;;;12.05;7.32;;;;;;;;;;5013850;28;20057;-49
2021/04/07 02:50:44;;;;;;;16.42;8.73;;;;;;;;;;5013995;28;20073;-50
2021/04/07 02:53:10;;;;;;;13.60;7.60;;;;;;;;;;5013939;28;20117;-48
2021/04/07 02:55:36;;;;;;;13.02;7.80;;;;;;;;;;5013853;28;20030;-50
2021/04/07 02:58:02;;;;;;;14.35;8.70;;;;;;;;;;5012355;28;20030;-50
2021/04/07 03:00:28;;;;;;;11.30;7.65;;;;;;;;;;5013667;28;20030;-50
2021/04/07 03:02:54;;;;;;;12.57;7.10;;;;;;;;;;5013755;28;20037;-51
2021/04/07 03:05:20;;;;;;;11.73;7.55;;;;;;;;;;5013838;28;20040;-50
2021/04/07 03:07:46;;;;;;;12.25;7.22;;;;;;;;;;5013631;28;20025;-51
2021/04/07 03:10:13;;;;;;;14.18;8.15;;;;;;;;;;5012033;28;20030;-49
2021/04/07 03:12:39;;;;;;;15.38;8.02;;;;;;;;;;5013974;28;20103;-50
2021/04/07 03:15:07;;;;;;;14.70;8.38;;;;;;;;;;5013471;28;20109;-51
2021/04/07 03:17:33;;;;;;;22.60;10.18;;;;;;;;;;5013750;28;20025;-48
2021/04/07 03:20:01;;;;;;;29.48;10.85;;;;;;;;;;5013712;28;20108;-48
2021/04/07 03:22:27;;;;;;;23.23;9.82;;;;;;;;;;5013722;28;20026;-47
2021/04/07 03:24:53;;;;;;;25.77;8.95;;;;;;;;;;5013453;28;20072;-47
2021/04/07 03:27:20;;;;;;;23.67;9.00;;;;;;;;;;5013358;28;20044;-47
2021/04/07 03:29:46;;;;;;;16.88;7.22;;;;;;;;;;5013413;28;20030;-47
2021/04/07 03:32:12;;;;;;;16.63;8.05;;;;;;;;;;5013104;28;20104;-47
2021/04/07 03:34:38;;;;;;;16.38;7.78;;;;;;;;;;5013654;28;20386;-49
2021/04/07 03:37:04;;;;;;;15.23;6.57;;;;;;;;;;5017010;28;20030;-47
2021/04/07 03:39:30;;;;;;;13.10;7.18;;;;;;;;;;5017255;28;20021;-47
2021/04/07 03:41:56;;;;;;;16.13;7.45;;;;;;;;;;5017415;28;20026;-47
2021/04/07 03:44:22;;;;;;;14.15;7.20;;;;;;;;;;5017364;28;20021;-47
2021/04/07 03:46:52;;;;;;;18.70;8.55;;;;;;;;;;5017301;28;20034;-47
2021/04/07 03:49:18;;;;;;;16.05;9.15;;;;;;;;;;5017341;28;20029;-47
2021/04/07 03:51:44;;;;;;;16.65;8.27;;;;;;;;;;5017303;28;20029;-50
2021/04/07 03:54:11;;;;;;;13.95;7.32;;;;;;;;;;5017168;28;20045;-49
2021/04/07 03:56:37;;;;;;;16.48;8.90;;;;;;;;;;5016931;28;20029;-49
2021/04/07 03:59:03;;;;;;;14.95;8.18;;;;;;;;;;5016919;28;20028;-48
2021/04/07 04:01:29;;;;;;;16.92;8.77;;;;;;;;;;5016877;28;20077;-49
2021/04/07 04:03:55;;;;;;;20.70;9.35;;;;;;;;;;5017027;28;20105;-48
2021/04/07 04:06:21;;;;;;;18.60;8.38;;;;;;;;;;5016904;28;20022;-48
2021/04/07 04:08:47;;;;;;;19.17;9.00;;;;;;;;;;5016935;28;20034;-47
2021/04/07 04:11:13;;;;;;;15.27;9.10;;;;;;;;;;5016686;28;20544;-50
2021/04/07 04:13:39;;;;;;;14.75;8.20;;;;;;;;;;5016726;28;20036;-48
2021/04/07 04:16:05;;;;;;;12.20;7.82;;;;;;;;;;5016623;28;20104;-50
2021/04/07 04:18:32;;;;;;;14.27;8.70;;;;;;;;;;5016647;28;20075;-48
2021/04/07 04:20:58;;;;;;;19.15;8.93;;;;;;;;;;5016535;28;20029;-49
2021/04/07 04:23:24;;;;;;;16.13;9.85;;;;;;;;;;5016555;28;20100;-48
2021/04/07 04:25:50;;;;;;;21.92;10.18;;;;;;;;;;5016541;28;20025;-47
2021/04/07 04:28:16;;;;;;;30.20;15.27;;;;;;;;;;5016377;28;20034;-50
2021/04/07 04:30:42;;;;;;;20.48;11.52;;;;;;;;;;5016302;28;20548;-49
2021/04/07 04:33:08;;;;;;;19.38;10.82;;;;;;;;;;5016097;28;20140;-48
2021/04/07 04:35:34;;;;;;;19.85;10.98;;;;;;;;;;5016369;28;20025;-48
2021/04/07 04:38:00;;;;;;;33.70;13.57;;;;;;;;;;5016154;28;20029;-49
2021/04/07 04:40:26;;;;;;;49.28;19.25;;;;;;;;;;5016267;28;20362;-49
2021/04/07 04:42:52;;;;;;;45.63;19.35;;;;;;;;;;5016191;28;20028;-49
2021/04/07 04:45:18;;;;;;;32.42;15.00;;;;;;;;;;5015949;28;20021;-48
2021/04/07 04:47:45;;;;;;;28.52;13.77;;;;;;;;;;4997902;28;20045;-49
2021/04/07 04:50:11;;;;;;;36.72;16.75;;;;;;;;;;5015951;28;20022;-49
2021/04/07 04:52:37;;;;;;;20.25;9.32;;;;;;;;;;4998240;28;20022;-49
2021/04/07 04:55:04;;;;;;;21.40;10.55;;;;;;;;;;5015805;28;20030;-48
2021/04/07 04:57:32;;;;;;;41.80;16.70;;;;;;;;;;4998374;28;20442;-49
2021/04/07 04:59:58;;;;;;;32.72;14.18;;;;;;;;;;5015677;28;20030;-49
2021/04/07 05:02:24;;;;;;;30.20;12.40;;;;;;;;;;5015878;28;20060;-49
2021/04/07 05:04:50;;;;;;;54.53;22.20;;;;;;;;;;5015707;28;20508;-49
2021/04/07 05:07:16;;;;;;;32.45;15.30;;;;;;;;;;5015635;28;20042;-50
2021/04/07 05:09:42;;;;;;;31.45;14.95;;;;;;;;;;5015716;28;20022;-50
2021/04/07 05:12:08;;;;;;;26.67;12.85;;;;;;;;;;5015770;28;20462;-51
2021/04/07 05:14:34;;;;;;;29.33;13.23;;;;;;;;;;5015589;28;20025;-50
2021/04/07 05:17:01;;;;;;;28.23;13.80;;;;;;;;;;5015438;28;20060;-51
2021/04/07 05:19:27;;;;;;;20.27;9.45;;;;;;;;;;5015773;28;20466;-50
2021/04/07 05:21:53;;;;;;;20.30;10.85;;;;;;;;;;5015362;28;20026;-52
2021/04/07 05:24:19;;;;;;;28.70;14.30;;;;;;;;;;5015538;28;20072;-51
2021/04/07 05:26:45;;;;;;;24.80;14.32;;;;;;;;;;5015397;28;20033;-52
2021/04/07 05:29:11;;;;;;;26.20;13.35;;;;;;;;;;4997694;28;20052;-50
2021/04/07 05:31:38;;;;;;;36.15;16.58;;;;;;;;;;4997499;28;20121;-52
2021/04/07 05:34:04;;;;;;;26.83;14.73;;;;;;;;;;5015394;28;20441;-52
2021/04/07 05:36:30;;;;;;;22.60;13.65;;;;;;;;;;5015103;28;20497;-52
2021/04/07 05:38:56;;;;;;;22.10;13.85;;;;;;;;;;5015287;28;20109;-52
2021/04/07 05:41:22;;;;;;;24.88;12.32;;;;;;;;;;4997629;28;20038;-52
2021/04/07 05:43:48;;;;;;;20.40;11.73;;;;;;;;;;5014994;28;20053;-51
2021/04/07 05:46:14;;;;;;;20.83;11.68;;;;;;;;;;5014972;28;20382;-53
2021/04/07 05:48:41;;;;;;;17.15;10.90;;;;;;;;;;5014948;28;20527;-51
2021/04/07 05:51:09;;;;;;;14.25;10.70;;;;;;;;;;5014790;28;20037;-50
2021/04/07 05:53:35;;;;;;;16.67;11.10;;;;;;;;;;5014872;28;20029;-53
2021/04/07 05:56:01;;;;;;;17.67;10.43;;;;;;;;;;5014812;28;20077;-51
2021/04/07 05:58:29;;;;;;;16.48;11.07;;;;;;;;;;5013853;28;20033;-51
2021/04/07 06:00:55;;;;;;;15.07;9.80;;;;;;;;;;5014531;28;20030;-50
2021/04/07 06:03:23;;;;;;;11.88;8.82;;;;;;;;;;5014604;28;20025;-52
2021/04/07 06:05:52;;;;;;;13.93;10.00;;;;;;;;;;5014513;28;20037;-52
2021/04/07 06:08:19;;;;;;;13.57;9.80;;;845.70;307.20;;;;;;5014713;28;20030;-53
2021/04/07 06:10:47;;;;;;;11.75;9.60;;;;;;;;;;5014637;28;20076;-52
2021/04/07 06:13:15;;;;;;;14.52;9.88;;;896.10;256.00;;;;;;5014764;28;20026;-50
2021/04/07 06:15:41;;;;;;;12.30;9.18;;;;;;;;;;5014465;28;20033;-49
2021/04/07 06:18:09;;;;;;;10.27;7.97;;;896.40;256.00;;;;;;5014384;28;20053;-52
2021/04/07 06:20:40;;;;;;;16.80;8.38;;;896.20;256.00;;;;;;5014625;28;20385;-49
2021/04/07 06:23:07;;;;;;;14.85;7.82;;;;;;;;;;5014407;28;20410;-50
2021/04/07 06:25:35;;;;;;;11.52;8.27;;;947.20;281.60;;;;;;5014317;28;20026;-50
2021/04/07 06:28:04;;;;;;;11.00;7.93;;;947.40;281.60;;;;;;5014442;28;20081;-49
2021/04/07 06:30:45;;;;;;;13.13;7.72;;;947.30;281.60;;;;;;5014681;28;20026;-50
2021/04/07 06:33:31;;;;;;;11.65;8.52;;;947.30;281.60;;;;;;5014073;28;20057;-50
2021/04/07 06:36:03;;;;;;;9.48;7.90;;;922.00;281.60;;;;;;5014086;28;20018;-51
2021/04/07 06:38:29;;;;;;;12.20;8.57;;;947.30;281.60;;;;;;5014013;28;20105;-50
2021/04/07 06:40:56;;;;;;;13.45;8.95;;;922.50;281.60;;;;;;5013973;28;20029;-51
2021/04/07 06:43:24;;;;;;;13.27;7.43;;;922.30;281.60;;;;;;5014182;28;20026;-52
2021/04/07 06:45:50;;;;;;;22.65;14.52;;;896.40;256.00;;;;;;5013937;28;20569;-50
2021/04/07 06:48:16;;;;;;;22.77;15.27;;;896.30;256.00;;;;;;5013908;28;20042;-50
2021/04/07 06:50:44;;;;;;;17.60;12.02;;;;;;;;;;5013824;28;20022;-50
2021/04/07 06:53:10;;;;;;;12.57;8.40;;;;;;;;;;5014183;28;20022;-51
2021/04/07 06:55:39;;;;;;;18.33;10.82;;;;;;;;;;5013875;28;20018;-52
2021/04/07 06:58:07;;;;;;;31.75;18.67;;;;;;;;;;5014029;28;20413;-50
2021/04/07 07:00:33;;;;;;;45.80;27.92;;;;;;;;;;5013870;28;20014;-53
2021/04/07 07:03:04;;;;;;;27.80;16.10;;;;;;;;;;5013894;28;20042;-52
2021/04/07 07:05:31;;;;;;;28.98;15.77;;;;;;;;;;5013858;28;20073;-52
2021/04/07 07:08:03;;;;;;;27.45;15.90;;;;;;;;;;5013583;28;20117;-51
2021/04/07 07:10:35;;;;;;;19.25;12.35;;;;;;;;;;5013599;28;20017;-53
2021/04/07 07:13:01;;;;;;;25.73;14.77;;;;;;;;;;5013764;28;20022;-49
2021/04/07 07:15:28;;;;;;;13.98;8.63;;;;;;;;;;5013714;28;20018;-50
2021/04/07 07:17:54;;;;;;;25.67;15.15;;;;;;;;;;5013549;28;20029;-52
2021/04/07 07:20:27;;;;;;;42.47;24.48;;;;;;;;;;5013642;28;20030;-53
2021/04/07 07:22:53;;;;;;;49.40;26.90;;;;;;;;;;5013361;28;20032;-50
2021/04/07 07:25:19;;;;;;;28.08;18.08;;;;;;;;;;5013669;28;20025;-53
2021/04/07 07:27:45;;;;;;;21.85;10.45;;;;;;;;;;5013920;28;20061;-50
2021/04/07 07:30:13;;;;;;;16.35;10.38;;;;;;;;;;5013587;28;20139;-50
2021/04/07 07:32:40;;;;;;;11.63;7.57;;;;;;;;;;5013080;28;20490;-54
2021/04/07 07:35:11;;;;;;;15.45;9.63;;;;;;;;;;5013513;28;20026;-50
2021/04/07 07:37:37;;;;;;;29.02;15.60;;;;;;;;;;5013245;28;20474;-52
2021/04/07 07:40:05;;;;;;;37.55;21.05;;;;;;;;;;5013472;28;20026;-52
2021/04/07 07:42:31;;;;;;;30.77;17.02;;;;;;;;;;5013323;28;20026;-54
2021/04/07 07:44:57;;;;;;;22.17;12.98;;;;;;;;;;5013425;28;20057;-54
2021/04/07 07:47:31;;;;;;;24.92;13.27;;;;;;;;;;5013404;28;20026;-51
2021/04/07 07:50:05;;;;;;;23.35;10.90;;;;;;;;;;5013234;28;20089;-51
2021/04/07 07:52:32;;;;;;;14.32;7.90;;;;;;;;;;5013623;28;20504;-52
2021/04/07 07:54:59;;;;;;;39.97;20.35;;;;;;;;;;4996090;28;20030;-54
2021/04/07 07:57:25;;;;;;;29.85;16.35;;;;;;;;;;5013225;28;20061;-50
2021/04/07 07:59:56;;;;;;;29.95;16.90;;;;;;;;;;5013477;28;20032;-51
2021/04/07 08:02:26;;;;;;;36.40;16.30;;;;;;;;;;5013345;28;20038;-51
2021/04/07 08:04:53;;;;;;;22.48;13.38;;;;;;;;;;5013191;28;20104;-49
2021/04/07 08:07:19;;;;;;;26.77;12.35;;;;;;;;;;5013001;28;20042;-51
2021/04/07 08:09:45;;;;;;;16.17;7.43;;;;;;;;;;5013201;28;20026;-51
2021/04/07 08:12:11;;;;;;;16.52;8.93;;;;;;;;;;5013104;28;20022;-51
2021/04/07 08:14:39;;;;;;;16.67;8.60;;;;;;;;;;5013180;28;20025;-52
2021/04/07 08:17:06;;;;;;;13.43;7.57;;;;;;;;;;5012962;28;20029;-53
2021/04/07 08:19:34;;;;;;;13.77;7.57;;;;;;;;;;5013119;28;20410;-52
2021/04/07 08:22:04;;;;;;;22.00;10.60;;;;;;;;;;5014855;28;20033;-52
2021/04/07 08:24:30;;;;;;;11.50;7.20;;;;;;;;;;5016609;28;20084;-53
2021/04/07 08:26:57;;;;;;;27.63;13.07;;;;;;;;;;5016462;28;20021;-52
2021/04/07 08:29:23;;;;;;;27.13;12.57;;;;;;;;;;5016348;28;20029;-52
2021/04/07 08:31:51;;;;;;;47.80;26.23;;;;;;;;;;5016328;28;20053;-50
2021/04/07 08:34:17;;;;;;;27.77;16.42;;;;;;;;;;5016309;28;20370;-51
2021/04/07 08:36:44;;;;;;;9.68;6.32;;;;;;;;;;5016348;28;20026;-51
2021/04/07 08:39:11;;;;;;;15.73;6.78;;;;;;;;;;5016057;28;20057;-51
2021/04/07 08:41:38;;;;;;;12.73;7.90;;;;;;;;;;5014852;28;20084;-51
2021/04/07 08:44:07;;;;;;;13.95;6.18;;;;;;;;;;5015911;28;20543;-54
2021/04/07 08:46:49;;;;;;;17.23;8.18;;;;;;;;;;5015418;28;20022;-51
2021/04/07 08:49:34;;;;;;;11.85;5.80;;;;;;;;;;5016132;28;20089;-51
2021/04/07 08:52:11;;;;;;;13.63;6.13;;;;;;;;;;5015788;28;20036;-49
2021/04/07 08:55:03;;;;;;;11.18;5.22;;;;;;;;;;5015600;28;20021;-49
2021/04/07 08:57:29;;;;;;;42.33;27.25;;;;;;;;;;5012956;28;20398;-51
2021/04/07 08:59:56;;;;;;;50.13;26.83;;;;;;;;;;5015647;28;20041;-49
2021/04/07 09:02:22;;;;;;;83.82;44.17;;;;;;;;;;5015317;28;20030;-52
2021/04/07 09:05:21;;;;;;;55.42;31.35;;;;;;;;;;5015444;28;20030;-53
2021/04/07 09:07:47;;;;;;;39.47;21.02;;;;;;;;;;4954824;28;20495;-51
2021/04/07 09:10:13;;;;;;;19.05;11.73;;;;;;;;;;4955085;29;20028;-52
2021/04/07 09:12:41;;;;;;;20.70;10.75;;;;;;;;;;4955122;29;20579;-50
2021/04/07 09:15:10;;;;;;;30.90;13.50;;;;;;;;;;4955246;29;20079;-52
2021/04/07 09:17:43;;;;;;;10.75;5.82;;;;;;;;;;4954981;29;20047;-53
2021/04/07 09:20:10;;;;;;;18.38;8.00;;;;;;;;;;4954982;29;20031;-52
2021/04/07 09:22:46;;;;;;;28.70;9.68;;;;;;;;;;4954745;29;20027;-51
2021/04/07 09:25:18;;;;;;;26.15;11.10;;;;;;;;;;4954933;29;20539;-50
2021/04/07 09:27:44;;;;;;;9.38;5.57;;;;;;;;;;4954767;29;20506;-53
2021/04/07 09:30:10;;;;;;;11.05;5.47;;;;;;;;;;4955090;29;20047;-52
2021/04/07 09:32:40;;;;;;;19.88;8.15;;;;;;;;;;4937613;29;20055;-52
2021/04/07 09:35:10;;;;;;;22.77;14.18;;;;;;;;;;4954457;29;20023;-50
2021/04/07 09:37:38;;;;;;;15.88;8.38;;;;;;;;;;4954361;29;20431;-52
2021/04/07 09:40:06;;;;;;;44.75;16.60;;;;;;;;;;4954417;29;20063;-52
2021/04/07 09:42:33;;;;;;;25.42;12.30;;;;;;;;;;4964015;28;20038;-51
2021/04/07 09:45:01;;;;;;;28.88;15.00;;;;;;;;;;5014828;28;20038;-53
2021/04/07 09:47:32;;;;;;;12.65;6.75;;;;;;;;;;5014729;28;20025;-51
2021/04/07 09:50:07;;;;;;;49.28;25.42;;;;;;;;;;5014687;28;20049;-49
2021/04/07 09:52:40;;;;;;;87.45;46.75;;;;;;;;;;5014615;28;20026;-52
2021/04/07 09:55:06;;;;;;;40.63;21.95;;;;;;;;;;5014681;28;20026;-50
2021/04/07 09:57:33;;;;;;;38.30;17.05;;;;;;;;;;5014644;28;20104;-49
2021/04/07 10:00:00;;;;;;;30.30;13.70;;;;;;;;;;5014527;28;20014;-49
2021/04/07 10:02:27;;;;;;;39.42;20.48;;;;;;;;;;5014321;28;20517;-48
2021/04/07 10:04:54;;;;;;;52.53;25.92;;;;;;;;;;5014663;28;20449;-50
2021/04/07 10:07:24;;;;;;;37.35;19.70;;;;;;;;;;5014323;28;20026;-52
2021/04/07 10:09:51;;;;;;;71.97;34.63;;;;;;;;;;5014151;28;20057;-50
2021/04/07 10:12:18;;;;;;;34.13;15.13;;;;;;;;;;5014015;28;20026;-50
2021/04/07 10:14:51;;;;;;;31.52;15.43;;;;;;;;;;5013563;28;20032;-48
2021/04/07 10:17:18;;;;;;;69.32;36.42;;;;;;;;;;5013255;28;20022;-51
2021/04/07 10:19:45;;;;;;;56.05;31.35;;;;;;;;;;5013273;28;20037;-47
2021/04/07 10:22:18;;;;;;;57.50;33.33;;;;;;;;;;5003126;28;20053;-51
2021/04/07 10:24:46;;;;;;;42.15;22.65;;;;;;;;;;5003857;28;20033;-48
2021/04/07 10:27:22;;;;;;;57.58;27.73;;;;;;;;;;5002840;28;20514;-48
2021/04/07 10:29:49;;;;;;;25.88;12.35;;;;;;;;;;5002705;28;20105;-46
2021/04/07 10:32:19;;;;;;;91.93;45.75;;;;;;;;;;5003588;28;20044;-49
2021/04/07 10:34:46;;;;;;;28.38;14.77;;;;;;;;;;5004745;28;20022;-48
2021/04/07 10:37:15;;;;;;;43.17;21.88;;;;;;;;;;5003164;28;20128;-48
2021/04/07 10:39:42;;;;;;;66.50;35.25;;;;;;;;;;5003029;28;20033;-46
2021/04/07 10:42:18;;;;;;;69.00;37.15;;;;;;;;;;5004555;28;20056;-48
2021/04/07 10:44:45;;;;;;;29.45;17.17;;;;;;;;;;5004073;28;20036;-48
2021/04/07 10:47:16;;;;;;;33.20;17.13;;;;;;;;;;5002716;28;20033;-50
2021/04/07 10:49:56;;;;;;;66.88;35.85;;;;;;;;;;5004726;28;20030;-49
2021/04/07 10:52:34;;;;;;;181.95;95.40;;;;;;;;;;5004151;28;20088;-50
2021/04/07 10:55:00;;;;;;;144.55;72.55;;;;;;;;;;5001622;28;20022;-48
2021/04/07 10:57:30;;;;;;;140.15;84.60;;;;;;;;;;5004373;28;20021;-48
2021/04/07 10:59:57;;;;;;;26.38;14.85;;;;;;;;;;5007573;28;20504;-54
2021/04/07 11:02:23;;;;;;;12.82;7.22;;;;;;;;;;5013448;28;20118;-50
2021/04/07 11:04:49;;;;;;;10.25;5.25;;;;;;;;;;5013567;28;20068;-53
2021/04/07 11:07:18;;;;;;;13.75;7.68;;;;;;;;;;5013523;28;20026;-54
2021/04/07 11:09:48;;;;;;;30.55;17.20;;;;;;;;;;5013302;28;20129;-54
2021/04/07 11:12:15;;;;;;;30.95;14.65;;;;;;;;;;5010035;28;20028;-50
2021/04/07 11:14:44;;;;;;;11.00;5.75;;;;;;;;;;5013731;28;20421;-52
2021/04/07 11:17:14;;;;;;;14.00;5.85;;;;;;;;;;5013627;28;20030;-53
2021/04/07 11:19:41;;;;;;;15.82;6.88;;;;;;;;;;5013120;28;20026;-51
2021/04/07 11:22:08;;;;;;;10.98;6.22;;;;;;;;;;5013525;28;20022;-51
2021/04/07 11:24:35;;;;;;;31.98;17.27;;;;;;;;;;5013324;28;20101;-51
2021/04/07 11:27:01;;;;;;;45.25;20.70;;;;;;;;;;5013568;28;20022;-51
2021/04/07 11:29:30;;;;;;;35.92;10.68;;;;;;;;;;5013520;28;20030;-52
2021/04/07 11:31:58;;;;;;;52.03;30.23;;;;;;;;;;5013176;28;20034;-52
2021/04/07 11:34:42;;;;;;;55.78;32.75;;;;;;;;;;5013297;28;20524;-54
2021/04/07 11:37:16;;;;;;;31.92;16.35;;;;;;;;;;5013185;28;20026;-52
2021/04/07 11:39:56;;;;;;;62.80;34.80;;;;;;;;;;5013280;28;20052;-51
2021/04/07 11:44:51;;;;;;;26.52;12.27;;;;;;;;;;5013241;28;20018;-52
2021/04/07 11:47:20;;;;;;;49.13;16.58;;;;;;;;;;4995795;28;20022;-53
2021/04/07 11:49:46;;;;;;;30.83;11.77;;;;;;;;;;4997384;28;20035;-53
2021/04/07 11:52:13;;;;;;;58.72;33.42;;;;;;;;;;4993603;28;20029;-51
2021/04/07 11:54:40;;;;;;;16.92;9.85;;;;;;;;;;4993470;28;20085;-52
2021/04/07 11:57:06;;;;;;;73.65;32.40;;;;;;;;;;4995404;28;20018;-52
2021/04/07 11:59:32;;;;;;;199.73;90.60;;;;;;;;;;4997353;28;20437;-52
2021/04/07 12:02:00;;;;;;;30.92;12.40;;;;;;;;;;4997292;28;20049;-52
2021/04/07 12:04:32;;;;;;;27.30;16.00;;;;;;;;;;4997022;28;20038;-51
2021/04/07 12:06:58;;;;;;;15.73;8.88;;;;;;;;;;4997144;28;20101;-52
2021/04/07 12:09:24;;;;;;;35.03;19.52;;;;;;;;;;4997036;28;20042;-52
2021/04/07 12:11:51;;;;;;;25.83;12.07;;;;;;;;;;4997112;28;20482;-54
2021/04/07 12:14:17;;;;;;;32.15;16.40;;;;;;;;;;4996948;28;20030;-51
2021/04/07 12:16:44;;;;;;;28.92;13.25;;;;;;;;;;4996910;28;20033;-53
2021/04/07 12:19:11;;;;;;;24.50;13.32;;;;;;;;;;4996975;28;20161;-53
2021/04/07 12:21:37;;;;;;;14.95;7.93;;;;;;;;;;4996818;28;20026;-51
2021/04/07 12:24:06;;;;;;;30.85;18.08;;;;;;;;;;4996507;28;20084;-53
2021/04/07 12:26:33;;;;;;;31.48;16.10;;;;;;;;;;4996623;28;20029;-54
2021/04/07 12:28:59;;;;;;;27.05;13.75;;;;;;;;;;4996540;28;20038;-52
2021/04/07 12:31:25;;;;;;;41.60;20.90;;;;;;;;;;4996390;28;20113;-53
2021/04/07 12:33:57;;;;;;;48.65;26.60;;;;;;;;;;4996577;28;20030;-53
2021/04/07 12:36:26;;;;;;;44.50;21.75;;;;;;;;;;4996596;28;20494;-54
2021/04/07 12:38:54;;;;;;;37.25;18.02;;;;;;;;;;4996356;28;20093;-50
2021/04/07 12:41:27;;;;;;;52.38;27.30;;;;;;;;;;4996332;28;20040;-52
2021/04/07 12:43:53;;;;;;;39.25;19.13;;;;;;;;;;4996339;28;20069;-52
2021/04/07 12:46:19;;;;;;;27.27;13.90;;;;;;;;;;4996118;28;20026;-50
2021/04/07 12:48:48;;;;;;;23.73;10.23;;;;;;;;;;4996385;28;20034;-52
2021/04/07 12:51:18;;;;;;;21.45;10.52;;;;;;;;;;4996309;28;20030;-51
2021/04/07 12:53:44;;;;;;;29.27;12.20;;;;;;;;;;4996088;28;20041;-50
2021/04/07 12:56:15;;;;;;;16.92;8.63;;;;;;;;;;4996188;28;20026;-52
2021/04/07 12:58:41;;;;;;;12.57;7.53;;;;;;;;;;4978239;28;20041;-53
2021/04/07 13:01:07;;;;;;;18.52;9.23;;;;;;;;;;4995862;28;20478;-49
2021/04/07 13:03:33;;;;;;;31.77;14.55;;;;;;;;;;4996018;28;20034;-51
2021/04/07 13:05:59;;;;;;;21.17;11.00;;;;;;;;;;4996042;28;20548;-52
2021/04/07 13:08:25;;;;;;;31.35;17.77;;;;;;;;;;4995588;28;20061;-51
2021/04/07 13:10:54;;;;;;;30.15;13.40;;;;;;;;;;4995479;28;20047;-52
2021/04/07 13:13:21;;;;;;;32.33;16.60;;;;;;;;;;4996053;28;20387;-51
2021/04/07 13:15:47;;;;;;;23.95;12.07;;;;;;;;;;4997671;28;20033;-51
2021/04/07 13:18:13;;;;;;;22.52;10.68;;;;;;;;;;5005436;28;20014;-52
2021/04/07 13:20:40;;;;;;;25.40;10.55;;;;;;;;;;5009282;28;20034;-54
2021/04/07 13:23:06;;;;;;;18.83;9.23;;;;;;;;;;5015397;28;20018;-54
2021/04/07 13:25:32;;;;;;;17.35;7.20;;;;;;;;;;5011902;28;20490;-51
2021/04/07 13:27:58;;;;;;;18.05;8.25;;;;;;;;;;5015375;28;20109;-51
2021/04/07 13:30:31;;;;;;;13.50;7.70;;;;;;;;;;5015118;28;20034;-51
2021/04/07 13:33:04;;;;;;;36.25;18.48;;;;;;;;;;5014790;28;20042;-51
2021/04/07 13:35:38;;;;;;;33.65;18.75;;;;;;;;;;5006646;28;20531;-50
2021/04/07 13:38:12;;;;;;;29.05;14.38;;;;;;;;;;5002083;28;20026;-52
2021/04/07 13:43:10;;;;;;;29.98;15.02;;;;;;;;;;4995363;28;20370;-48
2021/04/07 13:45:36;;;;;;;49.05;17.10;;;;;;;;;;4995555;28;20030;-52
2021/04/07 13:48:13;;;;;;;19.67;9.25;;;;;;;;;;4995427;28;20034;-48
2021/04/07 13:50:39;;;;;;;31.25;13.80;;;;;;;;;;4995227;28;20332;-49
2021/04/07 13:53:05;;;;;;;34.25;12.88;;;;;;;;;;4995175;28;20026;-51
2021/04/07 13:55:37;;;;;;;43.35;19.95;;;;;;;;;;4994979;28;20030;-49
2021/04/07 13:58:04;;;;;;;25.92;12.93;;;;;;;;;;4977671;28;20034;-52
2021/04/07 14:00:30;;;;;;;24.50;10.88;;;;;;;;;;4995059;28;20018;-48
2021/04/07 14:02:59;;;;;;;37.17;21.17;;;;;;;;;;4994460;28;20523;-50
2021/04/07 14:05:27;;;;;;;28.90;13.60;;;;;;;;;;4994944;28;20026;-50
2021/04/07 14:07:56;;;;;;;21.92;11.02;;;;;;;;;;4994747;28;20380;-49
2021/04/07 14:10:22;;;;;;;38.70;20.85;;;;;;;;;;4994551;28;20105;-50
2021/04/07 14:15:17;;;;;;;41.03;21.45;;;;;;;;;;4994648;28;20026;-50
2021/04/07 14:17:43;;;;;;;38.58;18.38;;;;;;;;;;4977257;28;20077;-48
2021/04/07 14:20:10;;;;;;;24.60;13.05;;;;;;;;;;4993097;28;20474;-48
2021/04/07 14:22:36;;;;;;;23.85;10.93;;;;;;;;;;4988384;28;20040;-49
2021/04/07 14:25:03;;;;;;;34.15;12.32;;;;;;;;;;4987372;28;20026;-48
2021/04/07 14:27:29;;;;;;;29.13;11.85;;;;;;;;;;4987215;28;20035;-49